sensor_id;sensor_type;location;lat;lon;timestamp;pressure;altitude;pressure_sealevel;temperature;humidity
60258;BME280;46115;44.484;11.314;2022-10-17T00:00:15;101425.91;;;16.98;82.46
60258;BME280;46115;44.484;11.314;2022-10-17T00:04:38;101417.56;;;17.04;82.05
60258;BME280;46115;44.484;11.314;2022-10-17T00:09:02;101410.53;;;16.88;83.00
60258;BME280;46115;44.484;11.314;2022-10-17T00:13:25;101408.44;;;16.78;82.72
60258;BME280;46115;44.484;11.314;2022-10-17T00:17:48;101432.09;;;16.99;82.94
60258;BME280;46115;44.484;11.314;2022-10-17T00:22:12;101401.00;;;16.83;82.97
60258;BME280;46115;44.484;11.314;2022-10-17T00:26:36;101432.94;;;16.85;83.32
60258;BME280;46115;44.484;11.314;2022-10-17T00:31:00;101416.81;;;16.72;82.84
60258;BME280;46115;44.484;11.314;2022-10-17T00:35:23;101448.75;;;16.74;83.58
60258;BME280;46115;44.484;11.314;2022-10-17T00:39:46;101434.84;;;16.69;83.51
60258;BME280;46115;44.484;11.314;2022-10-17T00:49:10;101448.66;;;16.75;83.35
60258;BME280;46115;44.484;11.314;2022-10-17T00:53:34;101430.34;;;16.53;84.03
60258;BME280;46115;44.484;11.314;2022-10-17T00:58:00;101419.25;;;16.45;84.11
60258;BME280;46115;44.484;11.314;2022-10-17T01:02:24;101448.66;;;16.60;84.16
60258;BME280;46115;44.484;11.314;2022-10-17T01:06:48;101454.75;;;16.62;83.76
60258;BME280;46115;44.484;11.314;2022-10-17T01:11:25;101451.78;;;16.52;84.38
60258;BME280;46115;44.484;11.314;2022-10-17T01:15:59;101442.00;;;16.37;84.82
60258;BME280;46115;44.484;11.314;2022-10-17T01:25:36;101442.00;;;16.37;84.67
60258;BME280;46115;44.484;11.314;2022-10-17T01:35:19;101438.31;;;16.23;85.20
60258;BME280;46115;44.484;11.314;2022-10-17T01:39:48;101450.97;;;16.36;85.25
60258;BME280;46115;44.484;11.314;2022-10-17T01:44:17;101451.50;;;16.11;85.95
60258;BME280;46115;44.484;11.314;2022-10-17T01:48:43;101447.34;;;16.21;85.46
60258;BME280;46115;44.484;11.314;2022-10-17T01:53:12;101444.34;;;16.11;85.74
60258;BME280;46115;44.484;11.314;2022-10-17T01:57:38;101440.28;;;16.20;85.71
60258;BME280;46115;44.484;11.314;2022-10-17T02:02:03;101446.16;;;16.11;86.11
60258;BME280;46115;44.484;11.314;2022-10-17T02:06:33;101450.47;;;16.13;85.65
60258;BME280;46115;44.484;11.314;2022-10-17T02:10:59;101443.06;;;16.03;86.29
60258;BME280;46115;44.484;11.314;2022-10-17T02:15:38;101434.69;;;15.93;86.67
60258;BME280;46115;44.484;11.314;2022-10-17T02:20:09;101445.91;;;16.00;86.55
60258;BME280;46115;44.484;11.314;2022-10-17T02:24:44;101438.59;;;16.03;86.37
60258;BME280;46115;44.484;11.314;2022-10-17T02:29:13;101437.13;;;15.98;86.29
60258;BME280;46115;44.484;11.314;2022-10-17T02:33:42;101430.84;;;15.99;86.46
60258;BME280;46115;44.484;11.314;2022-10-17T02:38:07;101431.28;;;16.07;86.32
60258;BME280;46115;44.484;11.314;2022-10-17T02:42:32;101434.97;;;16.20;85.21
60258;BME280;46115;44.484;11.314;2022-10-17T02:47:19;101429.53;;;16.21;85.48
60258;BME280;46115;44.484;11.314;2022-10-17T02:51:46;101429.13;;;15.98;86.37
60258;BME280;46115;44.484;11.314;2022-10-17T02:56:16;101414.56;;;15.87;86.04
60258;BME280;46115;44.484;11.314;2022-10-17T03:00:39;101433.41;;;15.84;86.14
60258;BME280;46115;44.484;11.314;2022-10-17T03:05:05;101438.41;;;15.75;86.46
60258;BME280;46115;44.484;11.314;2022-10-17T03:09:28;101423.09;;;15.63;86.88
60258;BME280;46115;44.484;11.314;2022-10-17T03:13:52;101445.03;;;15.68;86.73
60258;BME280;46115;44.484;11.314;2022-10-17T03:18:15;101454.50;;;15.56;87.50
60258;BME280;46115;44.484;11.314;2022-10-17T03:22:40;101453.34;;;15.62;87.05
60258;BME280;46115;44.484;11.314;2022-10-17T03:27:04;101445.81;;;15.52;87.20
60258;BME280;46115;44.484;11.314;2022-10-17T03:31:27;101456.22;;;15.57;87.59
60258;BME280;46115;44.484;11.314;2022-10-17T03:35:51;101466.69;;;15.62;87.77
60258;BME280;46115;44.484;11.314;2022-10-17T03:40:15;101467.69;;;15.59;87.47
60258;BME280;46115;44.484;11.314;2022-10-17T03:44:39;101467.28;;;15.49;87.52
60258;BME280;46115;44.484;11.314;2022-10-17T03:49:02;101474.16;;;15.53;88.10
60258;BME280;46115;44.484;11.314;2022-10-17T03:53:25;101475.69;;;15.42;88.12
60258;BME280;46115;44.484;11.314;2022-10-17T03:57:49;101479.41;;;15.55;87.64
60258;BME280;46115;44.484;11.314;2022-10-17T04:02:14;101479.50;;;15.53;88.00
60258;BME280;46115;44.484;11.314;2022-10-17T04:06:38;101484.03;;;15.36;88.44
60258;BME280;46115;44.484;11.314;2022-10-17T04:11:03;101487.47;;;15.38;88.50
60258;BME280;46115;44.484;11.314;2022-10-17T04:15:28;101488.94;;;15.43;88.03
60258;BME280;46115;44.484;11.314;2022-10-17T04:19:50;101490.50;;;15.47;88.42
60258;BME280;46115;44.484;11.314;2022-10-17T04:24:14;101499.75;;;15.40;87.67
60258;BME280;46115;44.484;11.314;2022-10-17T04:28:42;101500.94;;;15.35;88.29
60258;BME280;46115;44.484;11.314;2022-10-17T04:33:06;101503.44;;;15.38;88.46
60258;BME280;46115;44.484;11.314;2022-10-17T04:37:29;101514.59;;;15.28;88.35
60258;BME280;46115;44.484;11.314;2022-10-17T04:41:54;101512.91;;;15.26;88.69
60258;BME280;46115;44.484;11.314;2022-10-17T04:46:17;101516.59;;;15.23;88.98
60258;BME280;46115;44.484;11.314;2022-10-17T04:50:52;101512.78;;;15.29;88.77
60258;BME280;46115;44.484;11.314;2022-10-17T04:55:29;101515.38;;;15.13;89.17
60258;BME280;46115;44.484;11.314;2022-10-17T04:59:52;101487.91;;;14.95;89.20
60258;BME280;46115;44.484;11.314;2022-10-17T05:04:33;101504.06;;;14.91;89.20
60258;BME280;46115;44.484;11.314;2022-10-17T05:08:58;101534.03;;;14.96;89.83
60258;BME280;46115;44.484;11.314;2022-10-17T05:13:21;101539.25;;;15.15;89.36
60258;BME280;46115;44.484;11.314;2022-10-17T05:17:44;101545.69;;;15.11;89.47
60258;BME280;46115;44.484;11.314;2022-10-17T05:22:07;101545.44;;;15.15;89.51
60258;BME280;46115;44.484;11.314;2022-10-17T05:26:31;101556.25;;;15.12;89.14
60258;BME280;46115;44.484;11.314;2022-10-17T05:30:54;101551.88;;;15.11;88.81
60258;BME280;46115;44.484;11.314;2022-10-17T05:35:17;101569.25;;;15.01;89.78
60258;BME280;46115;44.484;11.314;2022-10-17T05:39:40;101567.94;;;15.10;89.06
60258;BME280;46115;44.484;11.314;2022-10-17T05:44:05;101573.34;;;15.08;89.26
60258;BME280;46115;44.484;11.314;2022-10-17T05:48:34;101578.97;;;15.02;89.08
60258;BME280;46115;44.484;11.314;2022-10-17T05:52:57;101562.38;;;14.97;89.00
60258;BME280;46115;44.484;11.314;2022-10-17T05:57:20;101588.53;;;15.06;89.20
60258;BME280;46115;44.484;11.314;2022-10-17T06:01:44;101598.31;;;15.23;88.01
60258;BME280;46115;44.484;11.314;2022-10-17T06:06:09;101591.84;;;15.28;87.62
60258;BME280;46115;44.484;11.314;2022-10-17T06:10:35;101622.81;;;15.31;88.23
60258;BME280;46115;44.484;11.314;2022-10-17T06:14:59;101621.00;;;15.49;87.04
60258;BME280;46115;44.484;11.314;2022-10-17T06:19:24;101620.09;;;15.67;85.94
60258;BME280;46115;44.484;11.314;2022-10-17T06:23:46;101629.50;;;15.74;85.69
60258;BME280;46115;44.484;11.314;2022-10-17T06:28:14;101637.94;;;16.33;83.70
60258;BME280;46115;44.484;11.314;2022-10-17T06:32:37;101643.25;;;16.66;81.50
60258;BME280;46115;44.484;11.314;2022-10-17T06:37:02;101649.81;;;16.59;81.68
60258;BME280;46115;44.484;11.314;2022-10-17T06:41:26;101647.56;;;16.35;82.79
60258;BME280;46115;44.484;11.314;2022-10-17T06:45:49;101651.44;;;16.45;82.63
60258;BME280;46115;44.484;11.314;2022-10-17T06:50:21;101660.16;;;16.65;81.67
60258;BME280;46115;44.484;11.314;2022-10-17T06:54:55;101659.03;;;16.53;82.11
60258;BME280;46115;44.484;11.314;2022-10-17T06:59:26;101673.84;;;16.59;81.96
60258;BME280;46115;44.484;11.314;2022-10-17T07:04:01;101678.84;;;16.65;81.69
60258;BME280;46115;44.484;11.314;2022-10-17T07:08:25;101682.09;;;16.87;81.18
60258;BME280;46115;44.484;11.314;2022-10-17T07:12:50;101682.09;;;16.87;81.34
60258;BME280;46115;44.484;11.314;2022-10-17T07:17:12;101676.50;;;17.07;80.10
60258;BME280;46115;44.484;11.314;2022-10-17T07:21:36;101686.38;;;17.37;79.66
60258;BME280;46115;44.484;11.314;2022-10-17T07:26:00;101670.28;;;17.53;78.82
60258;BME280;46115;44.484;11.314;2022-10-17T07:30:25;101686.00;;;17.89;77.56
60258;BME280;46115;44.484;11.314;2022-10-17T07:34:56;101691.97;;;18.36;75.41
60258;BME280;46115;44.484;11.314;2022-10-17T07:39:19;101688.56;;;19.04;72.75
60258;BME280;46115;44.484;11.314;2022-10-17T07:43:42;101689.75;;;19.93;69.58
60258;BME280;46115;44.484;11.314;2022-10-17T07:48:06;101686.84;;;19.84;68.90
60258;BME280;46115;44.484;11.314;2022-10-17T07:52:29;101698.28;;;23.51;57.15
60258;BME280;46115;44.484;11.314;2022-10-17T07:56:52;101707.50;;;22.49;58.25
60258;BME280;46115;44.484;11.314;2022-10-17T08:01:14;101711.81;;;26.59;47.95
60258;BME280;46115;44.484;11.314;2022-10-17T08:05:39;101717.88;;;26.81;46.70
60258;BME280;46115;44.484;11.314;2022-10-17T08:10:02;101725.38;;;28.73;42.56
60258;BME280;46115;44.484;11.314;2022-10-17T08:14:25;101725.22;;;28.40;42.49
60258;BME280;46115;44.484;11.314;2022-10-17T08:18:48;101726.22;;;29.74;39.50
60258;BME280;46115;44.484;11.314;2022-10-17T08:23:12;101733.72;;;30.21;38.92
60258;BME280;46115;44.484;11.314;2022-10-17T08:27:34;101722.03;;;30.67;37.70
60258;BME280;46115;44.484;11.314;2022-10-17T08:31:57;101722.34;;;31.12;36.91
60258;BME280;46115;44.484;11.314;2022-10-17T08:36:20;101707.00;;;30.71;37.64
60258;BME280;46115;44.484;11.314;2022-10-17T08:40:47;101714.16;;;31.43;36.49
60258;BME280;46115;44.484;11.314;2022-10-17T08:45:16;101718.94;;;31.10;36.21
60258;BME280;46115;44.484;11.314;2022-10-17T08:49:45;101718.16;;;31.55;35.55
60258;BME280;46115;44.484;11.314;2022-10-17T08:54:13;101698.75;;;30.32;37.74
60258;BME280;46115;44.484;11.314;2022-10-17T08:58:39;101706.00;;;31.34;36.41
60258;BME280;46115;44.484;11.314;2022-10-17T09:03:12;101712.47;;;33.20;33.43
60258;BME280;46115;44.484;11.314;2022-10-17T09:07:45;101722.09;;;34.16;30.56
60258;BME280;46115;44.484;11.314;2022-10-17T09:12:15;101710.13;;;33.53;30.81
60258;BME280;46115;44.484;11.314;2022-10-17T09:16:53;101714.97;;;33.51;31.53
60258;BME280;46115;44.484;11.314;2022-10-17T09:21:22;101719.44;;;33.59;31.66
60258;BME280;46115;44.484;11.314;2022-10-17T09:25:48;101719.91;;;33.41;31.53
60258;BME280;46115;44.484;11.314;2022-10-17T09:30:34;101705.84;;;31.36;34.95
60258;BME280;46115;44.484;11.314;2022-10-17T09:34:59;101702.53;;;28.57;40.40
60258;BME280;46115;44.484;11.314;2022-10-17T09:39:23;101707.00;;;29.01;39.75
60258;BME280;46115;44.484;11.314;2022-10-17T09:43:46;101701.72;;;27.70;42.95
60258;BME280;46115;44.484;11.314;2022-10-17T09:48:14;101702.50;;;26.99;44.39
60258;BME280;46115;44.484;11.314;2022-10-17T09:52:43;101679.91;;;25.87;47.43
60258;BME280;46115;44.484;11.314;2022-10-17T09:57:10;101695.97;;;25.98;47.90
60258;BME280;46115;44.484;11.314;2022-10-17T10:01:33;101701.03;;;25.74;48.33
60258;BME280;46115;44.484;11.314;2022-10-17T10:06:01;101693.84;;;26.11;47.35
60258;BME280;46115;44.484;11.314;2022-10-17T10:10:28;101698.28;;;25.45;49.71
60258;BME280;46115;44.484;11.314;2022-10-17T10:14:51;101699.75;;;25.68;48.73
60258;BME280;46115;44.484;11.314;2022-10-17T10:19:20;101692.56;;;25.19;49.49
60258;BME280;46115;44.484;11.314;2022-10-17T10:23:44;101665.94;;;25.34;49.13
60258;BME280;46115;44.484;11.314;2022-10-17T10:28:10;101691.28;;;25.23;50.35
60258;BME280;46115;44.484;11.314;2022-10-17T10:32:34;101667.09;;;24.81;50.81
60258;BME280;46115;44.484;11.314;2022-10-17T10:37:01;101697.94;;;25.00;50.97
60258;BME280;46115;44.484;11.314;2022-10-17T10:41:25;101689.03;;;24.48;51.84
60258;BME280;46115;44.484;11.314;2022-10-17T10:45:50;101689.28;;;24.66;51.87
60258;BME280;46115;44.484;11.314;2022-10-17T10:50:25;101689.06;;;24.57;51.70
60258;BME280;46115;44.484;11.314;2022-10-17T10:54:55;101684.72;;;24.36;51.55
60258;BME280;46115;44.484;11.314;2022-10-17T10:59:24;101686.59;;;24.24;52.40
60258;BME280;46115;44.484;11.314;2022-10-17T11:04:18;101685.31;;;24.39;53.03
60258;BME280;46115;44.484;11.314;2022-10-17T11:08:44;101685.72;;;24.35;53.33
60258;BME280;46115;44.484;11.314;2022-10-17T11:13:12;101677.50;;;24.25;53.56
60258;BME280;46115;44.484;11.314;2022-10-17T11:17:39;101671.34;;;24.13;53.56
60258;BME280;46115;44.484;11.314;2022-10-17T11:22:10;101673.38;;;24.21;53.81
60258;BME280;46115;44.484;11.314;2022-10-17T11:26:40;101658.09;;;23.89;54.44
60258;BME280;46115;44.484;11.314;2022-10-17T11:31:07;101667.28;;;23.77;54.87
60258;BME280;46115;44.484;11.314;2022-10-17T11:35:35;101669.63;;;24.12;54.12
60258;BME280;46115;44.484;11.314;2022-10-17T11:40:03;101663.66;;;23.88;55.21
60258;BME280;46115;44.484;11.314;2022-10-17T11:44:30;101646.53;;;23.99;54.78
60258;BME280;46115;44.484;11.314;2022-10-17T11:49:00;101651.81;;;24.00;54.30
60258;BME280;46115;44.484;11.314;2022-10-17T11:53:26;101650.75;;;23.39;56.08
60258;BME280;46115;44.484;11.314;2022-10-17T11:57:58;101645.19;;;23.93;53.52
60258;BME280;46115;44.484;11.314;2022-10-17T12:02:28;101636.34;;;23.60;54.64
60258;BME280;46115;44.484;11.314;2022-10-17T12:11:44;101636.66;;;23.67;54.59
60258;BME280;46115;44.484;11.314;2022-10-17T12:21:12;101622.78;;;23.40;54.67
60258;BME280;46115;44.484;11.314;2022-10-17T12:25:36;101622.91;;;23.70;53.95
60258;BME280;46115;44.484;11.314;2022-10-17T12:30:00;101622.75;;;23.72;53.99
60258;BME280;46115;44.484;11.314;2022-10-17T12:34:23;101624.28;;;23.64;54.78
60258;BME280;46115;44.484;11.314;2022-10-17T12:38:49;101614.34;;;23.65;55.05
60258;BME280;46115;44.484;11.314;2022-10-17T12:43:42;101616.84;;;23.78;54.40
60258;BME280;46115;44.484;11.314;2022-10-17T12:48:08;101593.81;;;23.42;54.38
60258;BME280;46115;44.484;11.314;2022-10-17T12:52:51;101619.00;;;23.84;53.75
60258;BME280;46115;44.484;11.314;2022-10-17T12:57:24;101621.84;;;23.61;54.01
60258;BME280;46115;44.484;11.314;2022-10-17T13:01:50;101578.81;;;23.49;53.15
60258;BME280;46115;44.484;11.314;2022-10-17T13:06:18;101612.28;;;23.57;53.02
60258;BME280;46115;44.484;11.314;2022-10-17T13:10:44;101605.19;;;23.77;51.95
60258;BME280;46115;44.484;11.314;2022-10-17T13:15:15;101617.06;;;23.01;53.46
60258;BME280;46115;44.484;11.314;2022-10-17T13:19:41;101611.72;;;23.43;53.43
60258;BME280;46115;44.484;11.314;2022-10-17T13:24:19;101605.06;;;23.47;54.03
60258;BME280;46115;44.484;11.314;2022-10-17T13:28:42;101608.31;;;23.41;53.61
60258;BME280;46115;44.484;11.314;2022-10-17T13:33:29;101606.13;;;23.34;53.80
60258;BME280;46115;44.484;11.314;2022-10-17T13:37:53;101601.06;;;23.41;53.69
60258;BME280;46115;44.484;11.314;2022-10-17T13:42:21;101604.41;;;23.66;52.68
60258;BME280;46115;44.484;11.314;2022-10-17T13:46:45;101593.03;;;23.51;53.00
60258;BME280;46115;44.484;11.314;2022-10-17T13:51:11;101596.75;;;23.71;52.73
60258;BME280;46115;44.484;11.314;2022-10-17T13:55:34;101591.16;;;23.62;53.27
60258;BME280;46115;44.484;11.314;2022-10-17T13:59:59;101583.41;;;23.69;52.37
60258;BME280;46115;44.484;11.314;2022-10-17T14:04:33;101597.06;;;23.56;52.66
60258;BME280;46115;44.484;11.314;2022-10-17T14:08:59;101591.22;;;23.72;51.82
60258;BME280;46115;44.484;11.314;2022-10-17T14:13:25;101582.59;;;23.57;52.09
60258;BME280;46115;44.484;11.314;2022-10-17T14:17:54;101596.72;;;23.61;52.02
60258;BME280;46115;44.484;11.314;2022-10-17T14:22:25;101559.41;;;23.34;52.41
60258;BME280;46115;44.484;11.314;2022-10-17T14:26:51;101576.28;;;23.15;52.53
60258;BME280;46115;44.484;11.314;2022-10-17T14:31:23;101583.44;;;23.37;52.00
60258;BME280;46115;44.484;11.314;2022-10-17T14:35:48;101581.78;;;22.93;53.15
60258;BME280;46115;44.484;11.314;2022-10-17T14:40:15;101590.03;;;23.12;52.46
60258;BME280;46115;44.484;11.314;2022-10-17T14:44:39;101574.81;;;22.90;52.97
60258;BME280;46115;44.484;11.314;2022-10-17T14:49:05;101580.41;;;23.30;52.11
60258;BME280;46115;44.484;11.314;2022-10-17T14:53:27;101577.97;;;23.48;51.80
60258;BME280;46115;44.484;11.314;2022-10-17T14:57:51;101574.13;;;23.51;51.85
60258;BME280;46115;44.484;11.314;2022-10-17T15:02:15;101575.84;;;23.52;51.71
60258;BME280;46115;44.484;11.314;2022-10-17T15:06:38;101566.72;;;23.43;51.79
60258;BME280;46115;44.484;11.314;2022-10-17T15:11:00;101568.22;;;23.36;51.66
60258;BME280;46115;44.484;11.314;2022-10-17T15:15:23;101574.28;;;23.49;51.58
60258;BME280;46115;44.484;11.314;2022-10-17T15:19:48;101570.53;;;23.41;51.73
60258;BME280;46115;44.484;11.314;2022-10-17T15:24:10;101568.75;;;23.30;51.94
60258;BME280;46115;44.484;11.314;2022-10-17T15:28:34;101572.06;;;23.01;52.65
60258;BME280;46115;44.484;11.314;2022-10-17T15:32:56;101580.69;;;22.95;52.91
60258;BME280;46115;44.484;11.314;2022-10-17T15:37:23;101574.41;;;23.27;52.05
60258;BME280;46115;44.484;11.314;2022-10-17T15:41:46;101569.25;;;23.24;52.08
60258;BME280;46115;44.484;11.314;2022-10-17T15:46:11;101582.34;;;23.08;52.52
60258;BME280;46115;44.484;11.314;2022-10-17T15:50:35;101571.94;;;23.03;52.69
60258;BME280;46115;44.484;11.314;2022-10-17T15:54:58;101574.06;;;22.88;53.17
60258;BME280;46115;44.484;11.314;2022-10-17T15:59:31;101574.44;;;22.95;53.22
60258;BME280;46115;44.484;11.314;2022-10-17T16:03:54;101568.19;;;22.83;53.33
60258;BME280;46115;44.484;11.314;2022-10-17T16:08:17;101570.19;;;22.70;53.88
60258;BME280;46115;44.484;11.314;2022-10-17T16:12:41;101577.78;;;22.54;54.78
60258;BME280;46115;44.484;11.314;2022-10-17T16:17:04;101580.88;;;22.38;55.45
60258;BME280;46115;44.484;11.314;2022-10-17T16:21:28;101578.94;;;22.18;56.09
60258;BME280;46115;44.484;11.314;2022-10-17T16:25:52;101565.59;;;22.16;55.38
60258;BME280;46115;44.484;11.314;2022-10-17T16:30:16;101578.44;;;22.13;56.43
60258;BME280;46115;44.484;11.314;2022-10-17T16:34:39;101582.31;;;21.75;57.47
60258;BME280;46115;44.484;11.314;2022-10-17T16:39:02;101579.00;;;21.83;57.61
60258;BME280;46115;44.484;11.314;2022-10-17T16:43:24;101584.38;;;21.60;58.09
60258;BME280;46115;44.484;11.314;2022-10-17T16:47:49;101560.34;;;21.35;58.35
60258;BME280;46115;44.484;11.314;2022-10-17T16:52:13;101583.47;;;21.48;58.67
60258;BME280;46115;44.484;11.314;2022-10-17T22:06:07;101660.09;;;17.59;81.70
60258;BME280;46115;44.484;11.314;2022-10-17T22:10:30;101661.41;;;17.52;81.99
60258;BME280;46115;44.484;11.314;2022-10-17T22:14:53;101664.09;;;17.52;81.96
60258;BME280;46115;44.484;11.314;2022-10-17T22:19:21;101652.22;;;17.42;81.88
60258;BME280;46115;44.484;11.314;2022-10-17T22:23:56;101652.81;;;17.31;82.31
60258;BME280;46115;44.484;11.314;2022-10-17T22:28:19;101657.22;;;17.32;82.69
60258;BME280;46115;44.484;11.314;2022-10-17T22:32:42;101663.28;;;17.36;82.11
60258;BME280;46115;44.484;11.314;2022-10-17T22:37:04;101660.34;;;17.25;83.19
60258;BME280;46115;44.484;11.314;2022-10-17T22:41:28;101662.16;;;17.24;83.06
60258;BME280;46115;44.484;11.314;2022-10-17T22:45:51;101649.25;;;17.17;82.86
60258;BME280;46115;44.484;11.314;2022-10-17T22:50:14;101660.34;;;17.25;82.62
60258;BME280;46115;44.484;11.314;2022-10-17T22:54:37;101656.72;;;17.26;82.94
60258;BME280;46115;44.484;11.314;2022-10-17T22:59:01;101650.28;;;17.14;82.99
60258;BME280;46115;44.484;11.314;2022-10-17T23:03:25;101658.66;;;17.08;83.56
60258;BME280;46115;44.484;11.314;2022-10-17T23:07:48;101654.69;;;16.99;83.46
60258;BME280;46115;44.484;11.314;2022-10-17T23:12:11;101649.19;;;17.02;83.71
60258;BME280;46115;44.484;11.314;2022-10-17T23:16:35;101642.44;;;16.95;84.55
60258;BME280;46115;44.484;11.314;2022-10-17T23:20:58;101643.75;;;17.04;83.78
60258;BME280;46115;44.484;11.314;2022-10-17T23:25:20;101644.16;;;16.96;83.68
60258;BME280;46115;44.484;11.314;2022-10-17T23:29:43;101631.25;;;16.89;84.06
60258;BME280;46115;44.484;11.314;2022-10-17T23:34:07;101633.78;;;16.76;84.91
60258;BME280;46115;44.484;11.314;2022-10-17T23:38:30;101645.22;;;16.78;84.78
60258;BME280;46115;44.484;11.314;2022-10-17T23:42:52;101639.53;;;16.68;84.97
60258;BME280;46115;44.484;11.314;2022-10-17T23:47:15;101627.44;;;16.61;84.90
60258;BME280;46115;44.484;11.314;2022-10-17T23:51:39;101637.81;;;16.67;85.18
60258;BME280;46115;44.484;11.314;2022-10-17T23:56:02;101634.41;;;16.64;85.38
